Aérodrome :
LOGIN :

S'inscrire | Disclaimer

   EN    FR    IT 

 










Légende :    VFR   VFR Marginal   IFR   IFR Intensif   IFR Très Intensif
Visi : 
Plafond : 
>= 8 km
>= 3000ft
5 à 8 km
1000 à 3000 ft
1500m à 5 km
500 à 1000 ft
800 à 1500m
200 à 500 ft
< 800m
< 200 ft
Symboles :   Orages  Brouillard  Fortes neiges  Fortes précipitations  Vent > 20 kt
SIGMETs :   Divers  Orages  Givrage  Turbulence  Onde Orograph.  Cendres Volcan.







- Altitude de l'aérodrome : 230 ft


ETHB - Buckeburg Army

DERNIER METAR :
  • 232020Z 29005KT 9999 SCT040 SCT220 13/06 Q1015 BLU+BLU+

METARs EXPIRÉS :
  • 231920Z 29006KT 9999 SCT042 SCT220 14/07 Q1015 BLU+BLU+
  • 231820Z 27009KT 9999 FEW045 SCT060 15/07 Q1014 BLU+BLU+

TAF TAF ETHB
Valide du 23 à 17h jusqu'au 24 à 02h UTC


231620Z 2317/2402 28012G22KT 9999 NSW SCT040 BKN150
BECMG 2317/2319 28008KT 9999 NSW SCT040
Pas de NOTAMs connus pour ce terrain.



MET'MAP, la Météo Aéronautique d'un coup d'oeil ! - Copyright ORBIFLY Décembre 2007 - Disclaimer

ORBIFLY MET'MAP TEAM :

Programmation & Développement : Alexandra Zaïnal
Conception & Développement : Baudouin d'Aumeries
Co-Programmation & Développement : Marc-Olivier Méhu
Soutien technique & logistique : Manuel Goepfert

Contact : metmap@orbifly.com




SOURCES & CREDITS :

   NOAA